TimeEDT,TemperatureF,Dew PointF,Humidity,Sea Level PressureIn,VisibilityMPH,Wind Direction,Wind SpeedMPH,Gust SpeedMPH,PrecipitationIn,Events,Conditions,WindDirDegrees,DateUTC
12:53 AM,73.0,71.1,93,30.17,10.0,Calm,Calm,-,N/A,,Scattered Clouds,0,2013-07-09 04:53:00
1:53 AM,73.0,71.1,93,30.16,10.0,Calm,Calm,-,N/A,,Mostly Cloudy,0,2013-07-09 05:53:00
2:53 AM,73.0,71.1,93,30.15,10.0,Calm,Calm,-,N/A,,Overcast,0,2013-07-09 06:53:00
3:53 AM,72.0,71.1,97,30.14,9.0,Calm,Calm,-,N/A,,Scattered Clouds,0,2013-07-09 07:53:00
4:53 AM,72.0,71.1,97,30.14,9.0,Calm,Calm,-,N/A,,Scattered Clouds,0,2013-07-09 08:53:00
5:27 AM,73.4,71.6,94,30.15,9.0,Calm,Calm,-,N/A,,Mostly Cloudy,0,2013-07-09 09:27:00
5:53 AM,73.0,71.1,93,30.15,10.0,Calm,Calm,-,0.01,,Mostly Cloudy,0,2013-07-09 09:53:00
6:16 AM,73.4,71.6,94,30.15,8.0,Calm,Calm,-,N/A,,Mostly Cloudy,0,2013-07-09 10:16:00
6:36 AM,73.4,71.6,94,30.16,9.0,South,3.5,-,N/A,,Overcast,170,2013-07-09 10:36:00
6:43 AM,73.4,71.6,94,30.16,9.0,South,4.6,-,N/A,,Overcast,170,2013-07-09 10:43:00
6:53 AM,73.9,72.0,93,30.15,9.0,Calm,Calm,-,N/A,,Overcast,0,2013-07-09 10:53:00
7:53 AM,75.0,73.0,94,30.16,8.0,SSW,6.9,-,N/A,,Overcast,210,2013-07-09 11:53:00
8:53 AM,75.9,73.0,91,30.17,8.0,SSW,4.6,-,N/A,,Overcast,210,2013-07-09 12:53:00
9:53 AM,78.1,73.9,87,30.17,10.0,SW,3.5,-,N/A,,Overcast,230,2013-07-09 13:53:00
10:14 AM,80.6,73.4,79,30.17,10.0,South,3.5,-,N/A,,Overcast,190,2013-07-09 14:14:00
10:53 AM,82.0,75.0,79,30.17,10.0,SSW,6.9,-,N/A,,Overcast,200,2013-07-09 14:53:00
11:40 AM,84.2,75.2,74,30.17,10.0,South,4.6,-,N/A,,Mostly Cloudy,170,2013-07-09 15:40:00
11:53 AM,86.0,75.0,70,30.16,10.0,South,5.8,-,N/A,,Mostly Cloudy,180,2013-07-09 15:53:00
12:01 PM,86.0,75.2,70,30.16,10.0,Variable,4.6,-,N/A,,Scattered Clouds,0,2013-07-09 16:01:00
12:11 PM,84.2,75.2,74,30.16,10.0,SW,4.6,-,N/A,,Mostly Cloudy,220,2013-07-09 16:11:00
12:20 PM,86.0,75.2,70,30.16,10.0,SSW,5.8,-,N/A,,Mostly Cloudy,200,2013-07-09 16:20:00
12:28 PM,86.0,75.2,70,30.15,10.0,South,5.8,-,N/A,,Mostly Cloudy,180,2013-07-09 16:28:00
12:37 PM,86.0,75.2,70,30.15,10.0,SSW,5.8,-,N/A,,Mostly Cloudy,200,2013-07-09 16:37:00
12:45 PM,86.0,75.2,70,30.15,10.0,Variable,4.6,-,N/A,,Mostly Cloudy,0,2013-07-09 16:45:00
12:53 PM,86.0,75.0,70,30.14,10.0,SSW,4.6,-,N/A,,Mostly Cloudy,200,2013-07-09 16:53:00
1:03 PM,84.2,75.2,74,30.15,10.0,South,5.8,-,N/A,,Mostly Cloudy,180,2013-07-09 17:03:00
1:14 PM,87.8,73.4,62,30.14,10.0,SSW,6.9,-,N/A,,Scattered Clouds,210,2013-07-09 17:14:00
1:53 PM,88.0,75.0,65,30.13,10.0,South,6.9,-,N/A,,Partly Cloudy,180,2013-07-09 17:53:00
2:53 PM,90.0,73.9,59,30.11,10.0,SSW,9.2,-,N/A,,Mostly Cloudy,210,2013-07-09 18:53:00
3:53 PM,84.9,72.0,65,30.10,10.0,SW,16.1,25.3,N/A,Thunderstorm,Mostly Cloudy,220,2013-07-09 19:53:00
4:07 PM,84.2,73.4,70,30.11,10.0,SSW,13.8,23.0,N/A,,Mostly Cloudy,210,2013-07-09 20:07:00
4:53 PM,84.9,72.0,65,30.09,10.0,SW,10.4,20.7,N/A,,Clear,220,2013-07-09 20:53:00
5:53 PM,81.0,72.0,74,30.09,10.0,SSW,5.8,-,N/A,,Clear,210,2013-07-09 21:53:00
6:53 PM,80.1,73.0,79,30.09,10.0,South,4.6,-,N/A,,Partly Cloudy,190,2013-07-09 22:53:00
7:53 PM,80.1,75.0,85,30.11,10.0,South,3.5,-,N/A,,Partly Cloudy,190,2013-07-09 23:53:00
8:53 PM,79.0,73.9,84,30.10,10.0,South,5.8,-,N/A,,Partly Cloudy,190,2013-07-10 00:53:00
9:53 PM,78.1,73.9,87,30.11,10.0,SSW,3.5,-,N/A,,Scattered Clouds,200,2013-07-10 01:53:00
10:53 PM,78.1,73.9,87,30.12,10.0,SSW,5.8,-,N/A,,Partly Cloudy,200,2013-07-10 02:53:00
11:53 PM,78.1,73.0,84,30.12,10.0,SSW,6.9,-,N/A,,Partly Cloudy,200,2013-07-10 03:53:00